Time;durP1;ratioP1;P1;durP2;ratioP2;P2;SDS_P1;SDS_P2;PMS_P1;PMS_P2;Temp;Humidity;BMP_temperature;BMP_pressure;BME280_temperature;BME280_humidity;BME280_pressure;Samples;Min_cycle;Max_cycle;Signal;HPM_P1;HPM_P2
2023/09/02 00:04:16;;;;;;;3.90;2.20;;;;;;;;;;10412233;28;20025;-54
2023/09/02 00:09:16;;;;;;;4.43;2.60;;;;;;;;;;10411341;28;20203;-54
2023/09/02 00:14:17;;;;;;;4.47;2.22;;;;;;;;;;10411358;28;20093;-52
2023/09/02 00:19:17;;;;;;;2.17;1.95;;;;;;;;;;10411620;28;20045;-56
2023/09/02 00:24:18;;;;;;;3.42;2.15;;;;;;;;;;10411597;28;20029;-54
2023/09/02 00:29:18;;;;;;;4.13;2.25;;;;;;;;;;10411580;28;20021;-56
2023/09/02 00:34:19;;;;;;;3.13;2.15;;;;;;;;;;10409908;28;20548;-57
2023/09/02 00:39:19;;;;;;;3.63;2.35;;;;;;;;;;10410836;28;20362;-57
2023/09/02 00:44:20;;;;;;;3.38;2.10;;;;;;;;;;10410759;28;20458;-54
2023/09/02 00:49:21;;;;;;;3.22;2.40;;;;;;;;;;10409537;28;20084;-54
2023/09/02 00:54:22;;;;;;;3.72;2.15;;;;;;;;;;10410526;28;20113;-52
2023/09/02 00:59:23;;;;;;;3.75;1.90;;;;;;;;;;10410734;28;20499;-54
2023/09/02 01:04:23;;;;;;;3.38;2.13;;;;;;;;;;10408942;28;20556;-54
2023/09/02 01:09:24;;;;;;;2.80;2.22;;;;;;;;;;10409727;28;20029;-51
2023/09/02 01:14:25;;;;;;;3.00;2.22;;;;;;;;;;10409883;28;20416;-55
2023/09/02 01:19:25;;;;;;;3.15;2.08;;;;;;;;;;10409613;28;20022;-54
2023/09/02 01:24:53;;;;;;;3.50;2.25;;;;;;;;;;10408183;28;20480;-52
2023/09/02 01:30:23;;;;;;;3.67;2.42;;;;;;;;;;10408910;28;20032;-53
2023/09/02 01:35:33;;;;;;;4.22;1.90;;;;;;;;;;10407881;28;20122;-50
2023/09/02 01:40:35;;;;;;;4.60;2.00;;;;;;;;;;10407771;28;20030;-55
2023/09/02 01:45:36;;;;;;;5.30;2.38;;;;;;;;;;10407324;28;20041;-52
2023/09/02 01:50:39;;;;;;;4.38;2.05;;;;;;;;;;10407691;28;20080;-53
2023/09/02 01:55:41;;;;;;;3.22;2.20;;;;;;;;;;10407313;28;20013;-54
2023/09/02 02:00:41;;;;;;;2.90;1.80;;;;;;;;;;10408492;28;20029;-55
2023/09/02 02:05:53;;;;;;;3.03;2.22;;;;;;;;;;10408361;28;20022;-53
2023/09/02 02:10:58;;;;;;;2.60;1.98;;;;;;;;;;10408228;28;20385;-55
2023/09/02 02:15:58;;;;;;;3.65;2.17;;;;;;;;;;10407006;28;20477;-56
2023/09/02 02:21:04;;;;;;;2.40;1.90;;;;;;;;;;10408131;28;20014;-51
2023/09/02 02:26:06;;;;;;;2.30;1.80;;;;;;;;;;10408030;28;20116;-56
2023/09/02 02:31:07;;;;;;;2.40;2.20;;;;;;;;;;10407925;28;20017;-56
2023/09/02 02:36:09;;;;;;;2.22;1.73;;;;;;;;;;10407954;28;20080;-55
2023/09/02 02:41:09;;;;;;;3.35;2.10;;;;;;;;;;10407728;28;20037;-55
2023/09/02 02:46:10;;;;;;;3.28;2.25;;;;;;;;;;10414260;28;20045;-54
2023/09/02 02:51:10;;;;;;;2.85;2.03;;;;;;;;;;10415568;28;20155;-55
2023/09/02 02:56:11;;;;;;;3.42;2.35;;;;;;;;;;10415075;28;20389;-56
2023/09/02 03:01:12;;;;;;;3.80;2.08;;;;;;;;;;10414974;28;20025;-56
2023/09/02 03:06:21;;;;;;;3.67;2.38;;;;;;;;;;10414762;28;20505;-55
2023/09/02 03:11:21;;;;;;;3.47;1.70;;;;;;;;;;10410287;28;20037;-47
2023/09/02 03:16:22;;;;;;;3.47;2.20;;;;;;;;;;10414459;28;20022;-47
2023/09/02 03:21:22;;;;;;;4.18;2.17;;;;;;;;;;10414679;28;20032;-47
2023/09/02 03:26:24;;;;;;;2.88;2.20;;;;;;;;;;10413964;28;20032;-46
2023/09/02 03:31:24;;;;;;;1.88;1.65;;;;;;;;;;10413848;28;20057;-47
2023/09/02 03:36:25;;;;;;;2.90;2.30;;;;;;;;;;10430418;28;20036;-47
2023/09/02 03:41:26;;;;;;;2.05;1.95;;;;;;;;;;10418485;28;20084;-48
2023/09/02 03:46:27;;;;;;;2.03;1.83;;;;;;;;;;10421653;28;20122;-47
2023/09/02 03:51:27;;;;;;;2.35;1.95;;;;;;;;;;10426512;28;20500;-46
2023/09/02 03:56:28;;;;;;;2.03;1.80;;;;;;;;;;10412529;28;20029;-46
2023/09/02 04:01:29;;;;;;;2.50;1.70;;;;;;;;;;10434575;28;20462;-47
2023/09/02 04:06:29;;;;;;;3.75;2.10;;;;;;;;;;10442584;28;20071;-47
2023/09/02 04:11:30;;;;;;;3.58;2.10;;;;;;;;;;10421416;28;20025;-46
2023/09/02 04:16:30;;;;;;;2.38;2.08;;;;;;;;;;10416983;28;20029;-48
2023/09/02 04:21:31;;;;;;;1.95;1.85;;;;;;;;;;10412328;28;20025;-47
2023/09/02 04:26:32;;;;;;;2.33;2.00;;;;;;;;;;10411652;28;20379;-48
2023/09/02 04:31:33;;;;;;;2.38;1.92;;;;;;;;;;10411995;28;20372;-48
2023/09/02 04:36:33;;;;;;;2.45;1.65;;;;;;;;;;10411707;28;20029;-47
2023/09/02 04:41:36;;;;;;;2.75;1.80;;;;;;;;;;10410952;28;20454;-49
2023/09/02 04:46:37;;;;;;;1.92;1.67;;;;;;;;;;10411245;28;20041;-47
2023/09/02 04:51:37;;;;;;;1.90;1.80;;;;;;;;;;10410975;28;20030;-47
2023/09/02 04:56:38;;;;;;;3.35;1.92;;;;;;;;;;10410693;28;20037;-47
2023/09/02 05:01:39;;;;;;;3.10;1.70;;;;;;;;;;10410653;28;20432;-47
2023/09/02 05:06:39;;;;;;;2.70;1.80;;;;;;;;;;10409870;28;20041;-47
2023/09/02 05:11:40;;;;;;;4.00;2.08;;;;;;;;;;10409492;28;20038;-46
2023/09/02 05:16:40;;;;;;;2.88;1.90;;;;;;;;;;10409373;28;20365;-56
2023/09/02 05:21:41;;;;;;;2.55;1.88;;;;;;;;;;10397919;28;20421;-56
2023/09/02 05:26:41;;;;;;;2.13;1.90;;;;;;;;;;10400617;28;20034;-55
2023/09/02 05:31:42;;;;;;;2.90;2.10;;;;;;;;;;10401762;28;20025;-56
2023/09/02 05:36:43;;;;;;;3.75;2.50;;;;;;;;;;10403399;28;20053;-57
2023/09/02 05:41:46;;;;;;;5.68;2.35;;;;;;;;;;10408909;28;20465;-53
2023/09/02 05:46:47;;;;;;;3.60;2.17;;;;;;;;;;10408694;28;20098;-54
2023/09/02 05:51:47;;;;;;;3.53;2.08;;;;;;;;;;10409119;28;20434;-53
2023/09/02 05:56:48;;;;;;;3.90;2.03;;;;;;;;;;10391317;28;20030;-57
2023/09/02 06:01:49;;;;;;;4.10;2.45;;;;;;;;;;10407048;28;20029;-54
2023/09/02 06:06:50;;;;;;;5.43;2.17;;;;;;;;;;10398754;28;20022;-53
2023/09/02 06:11:50;;;;;;;4.28;2.28;;;;;;;;;;10401576;28;20469;-47
2023/09/02 06:16:51;;;;;;;4.00;2.30;;;;;;;;;;10409966;28;20030;-54
2023/09/02 06:21:51;;;;;;;3.20;2.20;;;;;;;;;;10403768;28;20357;-54
2023/09/02 06:26:52;;;;;;;4.25;2.50;;;;;;;;;;10416705;28;20033;-56
2023/09/02 06:31:53;;;;;;;5.03;2.10;;;;;;;;;;10416085;28;20041;-55
2023/09/02 06:36:53;;;;;;;7.28;2.85;;;;;;;;;;10415940;28;20021;-56
2023/09/02 06:41:54;;;;;;;7.90;2.83;;;;;;;;;;10415768;28;20021;-53
2023/09/02 06:46:54;;;;;;;13.35;2.88;;;;;;;;;;10415995;28;20056;-53
2023/09/02 06:51:55;;;;;;;4.00;2.55;;;;;;;;;;10415792;28;20691;-49
2023/09/02 06:56:55;;;;;;;8.23;2.90;;;;;;;;;;10415333;28;20441;-54
2023/09/02 07:01:56;;;;;;;8.40;3.42;;;;;;;;;;10415135;28;20038;-54
2023/09/02 07:06:57;;;;;;;7.32;3.10;;;;;;;;;;10414882;28;20068;-52
2023/09/02 07:11:57;;;;;;;11.95;3.15;;;;;;;;;;10415544;28;20026;-46
2023/09/02 07:16:58;;;;;;;6.78;2.53;;;;;;;;;;10414690;28;20053;-46
2023/09/02 07:21:59;;;;;;;12.73;3.42;;;;;;;;;;10414570;28;20084;-47
2023/09/02 07:26:59;;;;;;;8.07;2.83;;;;;;;;;;10413852;28;20034;-46
2023/09/02 07:32:00;;;;;;;10.23;3.00;;;;;;;;;;10413012;28;20272;-46
2023/09/02 07:37:00;;;;;;;6.57;2.70;;;;;;;;;;10413510;28;20091;-46
2023/09/02 07:42:01;;;;;;;12.13;2.88;;;;;;;;;;10412997;28;20020;-46
2023/09/02 07:47:02;;;;;;;8.10;3.20;;;;;;;;;;10413436;28;20040;-46
2023/09/02 07:52:03;;;;;;;9.32;3.22;;;;;;;;;;10412768;28;20022;-46
2023/09/02 07:57:03;;;;;;;6.75;3.22;;;;;;;;;;10412230;28;20030;-46
2023/09/02 08:02:04;;;;;;;11.73;3.90;;;;;;;;;;10412471;28;20112;-46
2023/09/02 08:07:05;;;;;;;12.55;3.10;;;;;;;;;;10412611;28;20022;-46
2023/09/02 08:12:08;;;;;;;9.20;3.50;;;;;;;;;;10412154;28;20052;-46
2023/09/02 08:17:08;;;;;;;10.27;3.67;;;;;;;;;;10412525;28;20083;-46
2023/09/02 08:22:09;;;;;;;11.07;3.10;;;;;;;;;;10412052;28;20067;-46
2023/09/02 08:27:09;;;;;;;7.05;2.95;;;;;;;;;;10411928;28;20479;-46
2023/09/02 08:32:10;;;;;;;5.78;2.85;;;;;;;;;;10411444;28;20481;-46
2023/09/02 08:37:10;;;;;;;11.63;3.35;;;;;;;;;;10411786;28;20476;-46
2023/09/02 08:42:16;;;;;;;9.43;3.00;;;;;;;;;;10410685;28;20168;-46
2023/09/02 08:47:17;;;;;;;7.43;2.58;;;;;;;;;;10410141;28;20064;-46
2023/09/02 08:52:18;;;;;;;8.57;3.13;;;;;;;;;;10411215;28;20091;-50
2023/09/02 08:57:20;;;;;;;12.40;2.95;;;;;;;;;;10410939;28;20086;-47
2023/09/02 09:02:21;;;;;;;11.50;2.97;;;;;;;;;;10410360;28;20380;-46
2023/09/02 09:07:24;;;;;;;8.10;2.88;;;;;;;;;;10410148;28;20026;-48
2023/09/02 09:12:28;;;;;;;5.00;2.70;;;;;;;;;;10408793;28;20431;-46
2023/09/02 09:17:30;;;;;;;7.75;3.00;;;;;;;;;;10408968;28;20048;-46
2023/09/02 09:22:38;;;;;;;5.07;2.80;;;;;;;;;;10409794;28;20029;-46
2023/09/02 09:27:39;;;;;;;;;;;;;;;;;;10410389;28;20124;-47
2023/09/02 09:32:55;;;;;;;5.27;2.70;;;;;;;;;;10409421;28;19952;-48
2023/09/02 09:37:57;;;;;;;7.15;3.22;;;;;;;;;;10408372;28;20083;-46
2023/09/02 09:43:00;;;;;;;6.68;2.90;;;;;;;;;;10408883;28;20045;-46
2023/09/02 09:48:09;;;;;;;7.78;2.85;;;;;;;;;;10408993;28;20033;-46
2023/09/02 09:53:10;;;;;;;4.97;2.60;;;;;;;;;;10407689;28;20045;-46
2023/09/02 09:58:11;;;;;;;4.93;2.63;;;;;;;;;;10409151;28;20033;-46
2023/09/02 10:03:11;;;;;;;6.00;2.80;;;;;;;;;;10407723;28;20029;-46
2023/09/02 10:08:12;;;;;;;4.40;2.50;;;;;;;;;;10408349;28;20025;-48
2023/09/02 10:13:13;;;;;;;4.65;2.83;;;;;;;;;;10407897;28;20045;-47
2023/09/02 10:18:16;;;;;;;5.60;2.80;;;;;;;;;;10407922;28;20071;-47
2023/09/02 10:23:18;;;;;;;5.40;2.72;;;;;;;;;;10408091;28;20040;-46
2023/09/02 10:28:30;;;;;;;3.28;2.47;;;;;;;;;;10407986;28;20033;-46
2023/09/02 10:33:49;;;;;;;4.15;2.60;;;;;;;;;;10406723;28;20029;-46
2023/09/02 10:38:52;;;;;;;6.35;2.90;;;;;;;;;;10405943;28;20044;-46
2023/09/02 10:43:54;;;;;;;3.67;2.42;;;;;;;;;;10407370;28;20396;-46
2023/09/02 10:48:56;;;;;;;10.77;3.20;;;;;;;;;;10408189;28;20021;-46
2023/09/02 10:53:57;;;;;;;5.30;2.80;;;;;;;;;;10407787;28;20052;-46
2023/09/02 10:59:06;;;;;;;7.43;2.72;;;;;;;;;;10407429;28;20021;-46
2023/09/02 11:04:07;;;;;;;3.35;2.60;;;;;;;;;;10409185;28;20021;-46
2023/09/02 11:09:07;;;;;;;6.97;2.78;;;;;;;;;;10414727;28;20400;-46
2023/09/02 11:14:08;;;;;;;4.55;3.00;;;;;;;;;;10414462;28;20025;-46
2023/09/02 11:19:08;;;;;;;3.53;2.42;;;;;;;;;;10408453;28;20033;-46
2023/09/02 11:24:19;;;;;;;5.65;2.90;;;;;;;;;;10412380;28;20040;-46
2023/09/02 11:29:24;;;;;;;5.05;2.72;;;;;;;;;;10400486;28;20029;-45
2023/09/02 11:34:29;;;;;;;6.35;2.88;;;;;;;;;;10398874;28;20029;-45
2023/09/02 11:39:32;;;;;;;7.57;3.40;;;;;;;;;;10413707;28;20113;-46
2023/09/02 11:44:33;;;;;;;8.75;3.38;;;;;;;;;;10402090;28;20133;-46
2023/09/02 11:49:33;;;;;;;5.38;2.95;;;;;;;;;;10410542;28;20139;-45
2023/09/02 11:54:37;;;;;;;5.80;3.08;;;;;;;;;;10405096;28;20117;-46
2023/09/02 11:59:37;;;;;;;4.40;2.97;;;;;;;;;;10412843;28;20461;-46
2023/09/02 12:04:40;;;;;;;7.15;3.20;;;;;;;;;;10405888;28;20040;-46
2023/09/02 12:09:40;;;;;;;7.88;3.05;;;;;;;;;;10408592;28;20049;-46
2023/09/02 12:14:42;;;;;;;8.98;3.15;;;;;;;;;;10411707;28;20033;-46
2023/09/02 12:19:42;;;;;;;11.95;3.30;;;;;;;;;;10410857;28;20056;-46
2023/09/02 12:24:43;;;;;;;8.18;3.40;;;;;;;;;;10404918;28;20540;-46
2023/09/02 12:29:57;;;;;;;5.68;2.97;;;;;;;;;;10410000;28;20389;-47
2023/09/02 12:34:57;;;;;;;5.95;2.83;;;;;;;;;;10411414;28;20148;-46
2023/09/02 12:40:12;;;;;;;9.50;3.75;;;;;;;;;;10411529;28;20030;-47
2023/09/02 12:45:13;;;;;;;9.75;3.45;;;;;;;;;;10406041;28;20099;-46
2023/09/02 12:50:14;;;;;;;4.97;3.40;;;;;;;;;;10399801;28;20547;-47
2023/09/02 12:55:15;;;;;;;7.07;3.55;;;;;;;;;;10422017;28;20396;-47
2023/09/02 13:00:15;;;;;;;8.85;3.35;;;;;;;;;;10400935;28;20036;-47
2023/09/02 13:05:16;;;;;;;10.43;3.10;;;;;;;;;;10411722;28;20029;-48
2023/09/02 13:10:17;;;;;;;11.15;3.45;;;;;;;;;;10404174;28;20109;-46
2023/09/02 13:15:18;;;;;;;4.65;3.10;;;;;;;;;;10418403;28;20049;-46
2023/09/02 13:20:19;;;;;;;5.80;3.58;;;;;;;;;;10426694;28;20447;-47
2023/09/02 13:25:20;;;;;;;6.65;3.20;;;;;;;;;;10403508;28;20029;-48
2023/09/02 13:30:23;;;;;;;5.90;3.10;;;;;;;;;;10407723;28;20041;-46
2023/09/02 13:35:24;;;;;;;8.23;3.05;;;;;;;;;;10408146;28;20552;-46
2023/09/02 13:40:36;;;;;;;5.15;3.38;;;;;;;;;;10409416;28;20013;-47
2023/09/02 13:45:37;;;;;;;5.47;3.03;;;;;;;;;;10406897;28;20072;-46
2023/09/02 13:50:38;;;;;;;9.38;3.83;;;;;;;;;;10409141;28;20032;-46
2023/09/02 13:55:43;;;;;;;14.50;4.28;;;;;;;;;;10407616;28;20079;-47
2023/09/02 14:00:44;;;;;;;13.40;4.53;;;;;;;;;;10408989;28;20022;-46
2023/09/02 14:05:50;;;;;;;10.07;4.25;;;;;;;;;;10396688;28;20099;-46
2023/09/02 14:10:51;;;;;;;8.93;4.10;;;;;;;;;;10408401;28;20036;-56
2023/09/02 14:15:52;;;;;;;9.05;4.13;;;;;;;;;;10405508;28;20037;-55
2023/09/02 14:20:53;;;;;;;10.65;3.60;;;;;;;;;;10393480;28;20021;-55
2023/09/02 14:25:53;;;;;;;9.75;3.72;;;;;;;;;;10405578;28;20038;-55
2023/09/02 14:30:56;;;;;;;7.63;3.28;;;;;;;;;;10416030;28;20021;-50
2023/09/02 14:35:57;;;;;;;9.57;3.53;;;;;;;;;;10394576;28;20029;-55
2023/09/02 14:40:57;;;;;;;7.65;3.15;;;;;;;;;;10436395;28;20025;-54
2023/09/02 14:45:59;;;;;;;6.22;3.20;;;;;;;;;;10415568;28;20099;-53
2023/09/02 14:50:59;;;;;;;8.48;3.60;;;;;;;;;;10416337;28;20276;-53
2023/09/02 14:56:00;;;;;;;7.63;3.15;;;;;;;;;;10436998;28;20587;-56
2023/09/02 15:01:03;;;;;;;7.18;3.03;;;;;;;;;;10415107;28;20029;-57
2023/09/02 15:06:04;;;;;;;5.78;3.10;;;;;;;;;;10415148;28;20029;-56
2023/09/02 15:11:05;;;;;;;5.40;3.22;;;;;;;;;;10407902;28;20022;-47
2023/09/02 15:16:07;;;;;;;6.40;3.20;;;;;;;;;;10415072;28;20018;-46
2023/09/02 15:21:09;;;;;;;8.88;3.75;;;;;;;;;;10413272;28;20034;-47
2023/09/02 15:26:10;;;;;;;7.85;3.15;;;;;;;;;;10414166;28;20079;-46
2023/09/02 15:31:12;;;;;;;5.78;2.85;;;;;;;;;;10412799;28;20022;-47
2023/09/02 15:36:21;;;;;;;7.72;3.28;;;;;;;;;;10414008;28;20025;-48
2023/09/02 15:41:21;;;;;;;4.88;2.80;;;;;;;;;;10412599;28;20476;-47
2023/09/02 15:46:22;;;;;;;5.03;3.03;;;;;;;;;;10412789;28;20099;-47
2023/09/02 15:51:23;;;;;;;5.28;2.97;;;;;;;;;;10412574;28;20443;-53
2023/09/02 15:56:23;;;;;;;4.05;2.90;;;;;;;;;;10413202;28;20044;-46
2023/09/02 16:01:24;;;;;;;6.97;2.90;;;;;;;;;;10412820;28;20026;-47
2023/09/02 16:06:25;;;;;;;4.85;3.05;;;;;;;;;;10412261;28;20063;-48
2023/09/02 16:11:26;;;;;;;3.30;2.55;;;;;;;;;;10411852;28;20592;-47
2023/09/02 16:16:26;;;;;;;8.68;3.10;;;;;;;;;;10412128;28;20163;-47
2023/09/02 16:21:27;;;;;;;4.53;2.55;;;;;;;;;;10411925;28;20040;-46
2023/09/02 16:26:27;;;;;;;6.10;3.00;;;;;;;;;;10411745;28;20025;-47
2023/09/02 16:31:28;;;;;;;9.60;2.90;;;;;;;;;;10411451;28;20021;-47
2023/09/02 16:36:30;;;;;;;5.10;2.85;;;;;;;;;;10411425;28;20029;-46
2023/09/02 16:41:32;;;;;;;6.00;2.67;;;;;;;;;;10411096;28;20056;-47
2023/09/02 16:46:32;;;;;;;4.10;2.75;;;;;;;;;;10409167;28;20049;-47
2023/09/02 16:51:33;;;;;;;3.47;2.30;;;;;;;;;;10410901;28;20037;-47
2023/09/02 16:56:34;;;;;;;4.15;2.72;;;;;;;;;;10397528;28;20037;-48
2023/09/02 17:01:35;;;;;;;4.50;2.53;;;;;;;;;;10408323;28;20540;-47
2023/09/02 17:06:36;;;;;;;5.70;2.67;;;;;;;;;;10410138;28;20037;-47
2023/09/02 17:11:37;;;;;;;3.60;2.60;;;;;;;;;;10404586;28;20112;-47
2023/09/02 17:16:45;;;;;;;3.35;2.45;;;;;;;;;;10409814;28;20492;-47
2023/09/02 17:21:54;;;;;;;4.00;2.33;;;;;;;;;;10407220;28;20021;-47
2023/09/02 17:26:55;;;;;;;3.15;2.80;;;;;;;;;;10405455;28;20037;-47
2023/09/02 17:31:58;;;;;;;5.70;2.53;;;;;;;;;;10392911;28;20045;-46
2023/09/02 17:36:59;;;;;;;6.13;3.05;;;;;;;;;;10407217;28;20029;-47
2023/09/02 17:42:00;;;;;;;6.07;2.47;;;;;;;;;;10407963;28;20408;-48
2023/09/02 17:47:00;;;;;;;4.97;2.40;;;;;;;;;;10407330;28;20047;-47
2023/09/02 17:52:01;;;;;;;4.00;2.13;;;;;;;;;;10407121;28;20029;-47
2023/09/02 17:57:01;;;;;;;3.45;2.50;;;;;;;;;;10407118;28;20164;-47
2023/09/02 18:02:05;;;;;;;4.25;2.60;;;;;;;;;;10403101;28;20026;-47
2023/09/02 18:07:05;;;;;;;4.57;2.60;;;;;;;;;;10408417;28;20436;-46
2023/09/02 18:12:06;;;;;;;4.38;2.47;;;;;;;;;;10408642;28;20021;-46
2023/09/02 18:17:07;;;;;;;5.50;2.60;;;;;;;;;;10416660;28;20096;-46
2023/09/02 18:22:09;;;;;;;7.10;3.38;;;;;;;;;;10416591;28;20045;-46
2023/09/02 18:27:10;;;;;;;3.67;2.20;;;;;;;;;;10416350;28;20033;-46
2023/09/02 18:32:12;;;;;;;4.88;2.70;;;;;;;;;;10415974;28;20030;-47
2023/09/02 18:37:13;;;;;;;5.93;2.53;;;;;;;;;;10416103;28;20068;-46
2023/09/02 18:42:13;;;;;;;5.22;2.85;;;;;;;;;;10415563;28;20029;-47
2023/09/02 18:47:14;;;;;;;4.57;2.20;;;;;;;;;;10415664;28;20048;-46
2023/09/02 18:52:14;;;;;;;4.95;2.47;;;;;;;;;;10415627;28;20036;-46
2023/09/02 18:57:15;;;;;;;3.17;2.60;;;;;;;;;;10415580;28;20029;-46
2023/09/02 19:02:16;;;;;;;4.22;2.40;;;;;;;;;;10415438;28;20025;-46
2023/09/02 19:07:16;;;;;;;3.80;2.28;;;;;;;;;;10415391;28;20026;-47
2023/09/02 19:12:17;;;;;;;4.65;2.67;;;;;;;;;;10414642;28;20022;-46
2023/09/02 19:17:18;;;;;;;8.63;2.60;;;;;;;;;;10414535;28;20033;-46
2023/09/02 19:22:18;;;;;;;2.95;2.30;;;;;;;;;;10414530;28;20313;-46
2023/09/02 19:27:19;;;;;;;2.50;2.30;;;;;;;;;;10413114;28;20060;-47
2023/09/02 19:32:19;;;;;;;2.55;2.28;;;;;;;;;;10414921;28;20458;-51
2023/09/02 19:37:20;;;;;;;3.50;2.15;;;;;;;;;;10413958;28;20064;-46
2023/09/02 19:42:20;;;;;;;4.75;2.42;;;;;;;;;;10413195;28;20171;-49
2023/09/02 19:47:21;;;;;;;4.18;2.58;;;;;;;;;;10413318;28;20021;-47
2023/09/02 19:52:22;;;;;;;3.63;2.28;;;;;;;;;;10413921;28;20034;-46
2023/09/02 19:57:23;;;;;;;3.72;2.17;;;;;;;;;;10413255;28;20384;-46
2023/09/02 20:02:24;;;;;;;5.25;2.03;;;;;;;;;;10412622;28;20028;-46
2023/09/02 20:07:24;;;;;;;3.35;2.17;;;;;;;;;;10412547;28;20052;-46
2023/09/02 20:12:25;;;;;;;6.45;2.70;;;;;;;;;;10412562;28;20029;-46
2023/09/02 20:17:26;;;;;;;3.28;2.40;;;;;;;;;;10407516;28;20044;-47
2023/09/02 20:22:26;;;;;;;5.47;2.30;;;;;;;;;;10420423;28;20040;-46
2023/09/02 20:27:27;;;;;;;2.92;2.30;;;;;;;;;;10415738;28;20029;-47
2023/09/02 20:32:27;;;;;;;4.20;2.33;;;;;;;;;;10410956;28;20029;-46
2023/09/02 20:37:28;;;;;;;2.92;2.40;;;;;;;;;;10402306;28;20025;-46
2023/09/02 20:42:29;;;;;;;11.07;2.70;;;;;;;;;;10409840;28;20110;-47
2023/09/02 20:47:30;;;;;;;3.15;2.05;;;;;;;;;;10407090;28;20037;-50
2023/09/02 20:52:30;;;;;;;4.03;2.63;;;;;;;;;;10400957;28;20029;-46
2023/09/02 20:57:31;;;;;;;6.50;2.28;;;;;;;;;;10411132;28;20416;-46
2023/09/02 21:02:31;;;;;;;3.17;2.25;;;;;;;;;;10410184;28;20034;-47
2023/09/02 21:07:32;;;;;;;4.72;2.60;;;;;;;;;;10410604;28;20091;-47
2023/09/02 21:12:33;;;;;;;4.53;2.53;;;;;;;;;;10406545;28;20025;-46
2023/09/02 21:17:34;;;;;;;5.13;2.35;;;;;;;;;;10407527;28;20030;-46
2023/09/02 21:22:37;;;;;;;2.63;2.17;;;;;;;;;;10409326;28;20024;-46
2023/09/02 21:27:38;;;;;;;2.63;2.05;;;;;;;;;;10409161;28;20029;-46
2023/09/02 21:32:40;;;;;;;3.78;2.17;;;;;;;;;;10403071;28;20489;-46
2023/09/02 21:37:41;;;;;;;6.03;2.38;;;;;;;;;;10408821;28;20068;-46
2023/09/02 21:42:41;;;;;;;3.58;1.92;;;;;;;;;;10401218;28;20076;-46
2023/09/02 21:47:42;;;;;;;5.65;2.50;;;;;;;;;;10404503;28;20084;-47
2023/09/02 21:52:42;;;;;;;4.82;2.30;;;;;;;;;;10400141;28;20025;-47
2023/09/02 21:57:43;;;;;;;5.05;2.08;;;;;;;;;;10408480;28;20354;-47
2023/09/02 22:02:43;;;;;;;4.13;2.03;;;;;;;;;;10405943;28;20025;-46
2023/09/02 22:07:44;;;;;;;3.22;1.95;;;;;;;;;;10401674;28;20034;-46
2023/09/02 22:12:46;;;;;;;3.05;2.28;;;;;;;;;;10400962;28;20029;-47
2023/09/02 22:17:47;;;;;;;4.53;2.20;;;;;;;;;;10407283;28;20021;-46
2023/09/02 22:22:47;;;;;;;3.75;2.08;;;;;;;;;;10399987;28;20044;-47
2023/09/02 22:27:48;;;;;;;3.83;2.15;;;;;;;;;;10420525;28;20029;-47
2023/09/02 22:32:48;;;;;;;4.45;2.28;;;;;;;;;;10406020;28;20017;-47
2023/09/02 22:37:49;;;;;;;4.43;2.92;;;;;;;;;;10405434;28;20028;-48
2023/09/02 22:42:50;;;;;;;5.28;2.53;;;;;;;;;;10407579;28;20048;-46
2023/09/02 22:47:57;;;;;;;3.42;2.30;;;;;;;;;;10402459;28;20040;-47
2023/09/02 22:52:58;;;;;;;4.90;2.25;;;;;;;;;;10406658;28;20168;-46
2023/09/02 22:58:04;;;;;;;3.75;2.30;;;;;;;;;;10403251;28;20307;-47
2023/09/02 23:03:07;;;;;;;3.67;2.30;;;;;;;;;;10401632;28;20461;-47
2023/09/02 23:08:08;;;;;;;4.90;2.17;;;;;;;;;;10408882;28;20053;-47
2023/09/02 23:13:09;;;;;;;4.35;2.40;;;;;;;;;;10399967;28;20029;-46
2023/09/02 23:18:10;;;;;;;4.07;2.00;;;;;;;;;;10402725;28;20029;-46
2023/09/02 23:23:10;;;;;;;5.65;2.20;;;;;;;;;;10412544;28;20116;-47
2023/09/02 23:28:11;;;;;;;5.15;1.98;;;;;;;;;;10412828;28;20037;-47
2023/09/02 23:33:12;;;;;;;3.10;2.10;;;;;;;;;;10410633;28;20038;-46
2023/09/02 23:38:12;;;;;;;3.55;1.98;;;;;;;;;;10411491;28;20033;-46
2023/09/02 23:43:13;;;;;;;5.55;2.00;;;;;;;;;;10404876;28;20054;-47
2023/09/02 23:48:14;;;;;;;3.25;2.17;;;;;;;;;;10400201;28;20038;-46
2023/09/02 23:53:15;;;;;;;7.07;2.15;;;;;;;;;;10411074;28;20068;-46
2023/09/02 23:58:15;;;;;;;3.55;2.45;;;;;;;;;;10410854;28;20056;-46
